createdAt,value
2022-07-26T00:01:38.539Z,99322.72
2022-07-26T00:04:05.422Z,99342.56
2022-07-26T00:06:31.935Z,99352.16
2022-07-26T00:08:58.464Z,99352.91
2022-07-26T00:11:25.733Z,99359.13
2022-07-26T00:13:52.430Z,99369.63
2022-07-26T00:16:20.622Z,99373.69
2022-07-26T00:18:47.778Z,99375.44
2022-07-26T00:21:14.243Z,99384.75
2022-07-26T00:23:40.684Z,99387.31
2022-07-26T00:26:07.212Z,99391.31
2022-07-26T00:28:34.037Z,99383.97
2022-07-26T00:31:00.605Z,99395.28
2022-07-26T00:33:28.505Z,99391.81
2022-07-26T00:35:55.177Z,99408.03
2022-07-26T00:38:21.661Z,99402.25
2022-07-26T00:40:48.245Z,99393.88
2022-07-26T00:43:14.656Z,99395.41
2022-07-26T00:45:41.390Z,99386.50
2022-07-26T00:48:07.889Z,99379.13
2022-07-26T00:50:34.803Z,99378.28
2022-07-26T00:53:01.885Z,99389.75
2022-07-26T00:55:28.721Z,99396.66
2022-07-26T00:57:55.223Z,99407.38
2022-07-26T01:00:27.632Z,99403.13
2022-07-26T01:02:56.132Z,99404.28
2022-07-26T01:05:23.722Z,99417.66
2022-07-26T01:07:50.919Z,99421.53
2022-07-26T01:10:17.623Z,99432.81
2022-07-26T01:12:45.426Z,99437.50
2022-07-26T01:15:14.473Z,99436.69
2022-07-26T01:17:41.794Z,99446.34
2022-07-26T01:20:10.514Z,99446.84
2022-07-26T01:22:37.778Z,99451.50
2022-07-26T01:25:06.110Z,99450.53
2022-07-26T01:27:34.518Z,99455.94
2022-07-26T01:30:01.408Z,99463.78
2022-07-26T01:32:29.283Z,99470.81
2022-07-26T01:34:56.544Z,99467.50
2022-07-26T01:37:24.117Z,99465.59
2022-07-26T01:39:55.355Z,99465.84
2022-07-26T01:42:22.154Z,99455.50
2022-07-26T01:44:49.109Z,99461.81
2022-07-26T01:47:16.415Z,99464.19
2022-07-26T01:49:44.973Z,99465.50
2022-07-26T01:52:11.524Z,99452.66
2022-07-26T01:54:38.409Z,99448.50
2022-07-26T01:57:05.122Z,99438.34
2022-07-26T01:59:32.863Z,99432.22
2022-07-26T02:02:00.068Z,99420.75
2022-07-26T02:04:45.845Z,99422.22
2022-07-26T02:07:13.475Z,99408.59
2022-07-26T02:09:40.679Z,99412.72
2022-07-26T02:12:07.863Z,99417.88
2022-07-26T02:14:34.932Z,99415.84
2022-07-26T02:17:02.292Z,99420.69
2022-07-26T02:19:29.718Z,99419.56
2022-07-26T02:21:56.275Z,99421.28
2022-07-26T02:24:23.354Z,99421.06
2022-07-26T02:26:50.072Z,99418.84
2022-07-26T02:29:16.855Z,99430.19
2022-07-26T02:31:48.479Z,99420.09
2022-07-26T02:34:16.603Z,99417.69
2022-07-26T02:36:43.820Z,99412.88
2022-07-26T02:39:12.236Z,99406.72
2022-07-26T02:41:38.948Z,99397.84
2022-07-26T02:44:06.684Z,99404.19
2022-07-26T02:46:33.527Z,99407.38
2022-07-26T02:49:00.886Z,99414.72
2022-07-26T02:51:28.483Z,99421.84
2022-07-26T02:53:55.093Z,99426.31
2022-07-26T02:56:21.882Z,99429.47
2022-07-26T02:58:48.648Z,99430.75
2022-07-26T03:01:15.225Z,99433.88
2022-07-26T03:03:45.910Z,99429.66
2022-07-26T03:06:15.179Z,99435.38
2022-07-26T03:08:41.705Z,99430.75
2022-07-26T03:11:11.955Z,99429.88
2022-07-26T03:13:38.779Z,99429.97
2022-07-26T03:16:05.765Z,99429.53
2022-07-26T03:18:32.335Z,99429.53
2022-07-26T03:20:58.815Z,99421.81
2022-07-26T03:23:28.756Z,99420.34
2022-07-26T03:25:55.201Z,99431.00
2022-07-26T03:28:21.655Z,99433.72
2022-07-26T03:30:48.051Z,99429.72
2022-07-26T03:33:14.445Z,99418.78
2022-07-26T03:35:40.950Z,99423.25
2022-07-26T03:38:08.281Z,99419.53
2022-07-26T03:40:35.134Z,99420.28
2022-07-26T03:43:01.760Z,99418.34
2022-07-26T03:45:29.789Z,99427.53
2022-07-26T03:47:58.269Z,99435.78
2022-07-26T03:50:24.676Z,99431.72
2022-07-26T03:52:51.130Z,99421.84
2022-07-26T03:55:36.813Z,99419.41
2022-07-26T03:58:03.489Z,99431.44
2022-07-26T04:00:30.203Z,99430.16
2022-07-26T04:02:56.648Z,99435.63
2022-07-26T04:05:23.727Z,99437.13
2022-07-26T04:07:53.037Z,99442.78
2022-07-26T04:10:20.918Z,99448.38
2022-07-26T04:12:47.332Z,99455.19
2022-07-26T04:15:16.098Z,99452.44
2022-07-26T04:17:42.888Z,99454.91
2022-07-26T04:20:11.117Z,99461.75
2022-07-26T04:22:38.909Z,99454.69
2022-07-26T04:25:07.678Z,99449.22
2022-07-26T04:27:34.370Z,99457.78
2022-07-26T04:30:00.878Z,99461.06
2022-07-26T04:32:27.607Z,99462.19
2022-07-26T04:34:54.318Z,99461.13
2022-07-26T04:37:20.654Z,99471.16
2022-07-26T04:39:49.365Z,99473.41
2022-07-26T04:42:19.628Z,99473.88
2022-07-26T04:44:46.000Z,99479.66
2022-07-26T04:47:12.354Z,99483.53
2022-07-26T04:49:38.836Z,99477.03
2022-07-26T04:52:05.515Z,99485.38
2022-07-26T04:54:32.318Z,99491.97
2022-07-26T04:56:58.724Z,99491.63
2022-07-26T04:59:25.134Z,99494.75
2022-07-26T05:01:51.701Z,99492.53
2022-07-26T05:04:18.176Z,99494.13
2022-07-26T05:06:45.375Z,99488.91
2022-07-26T05:09:12.097Z,99499.78
2022-07-26T05:11:38.586Z,99496.81
2022-07-26T05:14:05.257Z,99507.31
2022-07-26T05:16:31.933Z,99505.28
2022-07-26T05:18:58.582Z,99513.84
2022-07-26T05:21:25.161Z,99510.50
2022-07-26T05:23:51.730Z,99521.22
2022-07-26T05:26:19.200Z,99519.69
2022-07-26T05:28:45.648Z,99515.28
2022-07-26T05:31:12.317Z,99513.78
2022-07-26T05:33:39.639Z,99516.88
2022-07-26T05:36:06.536Z,99518.63
2022-07-26T05:38:33.699Z,99525.78
2022-07-26T05:41:00.191Z,99526.13
2022-07-26T05:43:27.603Z,99532.06
2022-07-26T05:46:09.725Z,99540.59
2022-07-26T05:48:36.875Z,99536.53
2022-07-26T05:51:04.614Z,99535.88
2022-07-26T05:53:31.023Z,99528.97
2022-07-26T05:55:57.434Z,99537.31
2022-07-26T05:58:23.828Z,99539.50
2022-07-26T06:00:52.835Z,99535.34
2022-07-26T06:03:22.217Z,99538.81
2022-07-26T06:05:54.114Z,99540.44
2022-07-26T06:08:21.483Z,99535.06
2022-07-26T06:10:48.874Z,99538.31
2022-07-26T06:13:15.667Z,99549.34
2022-07-26T06:15:43.101Z,99556.00
2022-07-26T06:18:10.072Z,99555.38
2022-07-26T06:20:41.265Z,99556.59
2022-07-26T06:23:07.845Z,99556.13
2022-07-26T06:25:35.767Z,99553.28
2022-07-26T06:28:07.725Z,99561.41
2022-07-26T06:30:39.003Z,99561.34
2022-07-26T06:33:06.088Z,99565.03
2022-07-26T06:35:35.220Z,99561.09
2022-07-26T06:38:03.417Z,99559.81
2022-07-26T06:40:31.167Z,99562.06
2022-07-26T06:43:01.355Z,99564.31
2022-07-26T06:45:34.003Z,99562.66
2022-07-26T06:48:00.663Z,99565.97
2022-07-26T06:50:28.389Z,99566.09
2022-07-26T06:52:55.138Z,99560.31
2022-07-26T06:55:21.696Z,99565.47
2022-07-26T06:57:50.188Z,99559.31
2022-07-26T07:00:19.433Z,99563.56
2022-07-26T07:02:46.256Z,99557.94
2022-07-26T07:05:13.109Z,99566.38
2022-07-26T07:07:42.141Z,99567.22
2022-07-26T07:10:10.003Z,99561.91
2022-07-26T07:12:36.450Z,99568.81
2022-07-26T07:15:03.374Z,99561.88
2022-07-26T07:17:29.977Z,99571.00
2022-07-26T07:19:57.700Z,99573.19
2022-07-26T07:22:24.321Z,99571.19
2022-07-26T07:24:51.165Z,99575.31
2022-07-26T07:27:17.858Z,99568.06
2022-07-26T07:29:44.670Z,99568.56
2022-07-26T07:32:18.531Z,99581.09
2022-07-26T07:34:48.007Z,99579.34
2022-07-26T07:37:17.259Z,99574.50
2022-07-26T07:39:44.099Z,99575.81
2022-07-26T07:42:15.649Z,99574.00
2022-07-26T07:44:43.029Z,99573.69
2022-07-26T07:47:09.505Z,99568.72
2022-07-26T07:49:36.499Z,99570.53
2022-07-26T07:52:05.754Z,99563.91
2022-07-26T07:54:32.251Z,99565.78
2022-07-26T07:56:59.132Z,99568.97
2022-07-26T07:59:26.182Z,99560.00
2022-07-26T08:01:52.738Z,99559.09
2022-07-26T08:04:20.490Z,99551.59
2022-07-26T08:06:51.081Z,99563.59
2022-07-26T08:09:19.032Z,99571.19
2022-07-26T08:11:45.908Z,99564.94
2022-07-26T08:14:18.114Z,99567.13
2022-07-26T08:16:52.188Z,99573.22
2022-07-26T08:19:40.858Z,99567.88
2022-07-26T08:22:14.933Z,99576.59
2022-07-26T08:24:41.598Z,99582.94
2022-07-26T08:27:08.111Z,99578.50
2022-07-26T08:29:34.534Z,99580.06
2022-07-26T08:32:01.097Z,99585.50
2022-07-26T08:34:27.719Z,99594.34
2022-07-26T08:37:15.411Z,99592.50
2022-07-26T08:39:40.862Z,99594.72
2022-07-26T08:42:22.730Z,99610.63
2022-07-26T08:44:50.587Z,99607.47
2022-07-26T08:47:35.377Z,99594.63
2022-07-26T08:50:05.284Z,99604.34
2022-07-26T08:52:32.299Z,99594.72
2022-07-26T08:54:58.790Z,99596.06
2022-07-26T08:57:25.226Z,99596.88
2022-07-26T09:00:18.277Z,99594.06
2022-07-26T09:02:45.510Z,99603.66
2022-07-26T09:05:12.587Z,99606.63
2022-07-26T09:07:40.153Z,99604.50
2022-07-26T09:10:09.638Z,99609.72
2022-07-26T09:12:37.797Z,99596.91
2022-07-26T09:15:06.836Z,99604.00
2022-07-26T09:17:44.015Z,99616.97
2022-07-26T09:20:24.282Z,99605.75
2022-07-26T09:23:07.682Z,99596.44
2022-07-26T09:25:35.574Z,99597.97
2022-07-26T09:28:03.776Z,99604.06
2022-07-26T09:30:32.722Z,99600.72
2022-07-26T09:33:05.929Z,99610.91
2022-07-26T09:35:52.128Z,99602.38
2022-07-26T09:38:19.499Z,99612.59
2022-07-26T09:40:46.797Z,99610.16
2022-07-26T09:43:19.819Z,99608.78
2022-07-26T09:46:03.673Z,99606.63
2022-07-26T09:48:52.321Z,99612.59
2022-07-26T09:51:34.782Z,99603.47
2022-07-26T09:54:02.013Z,99608.66
2022-07-26T09:56:49.168Z,99618.56
2022-07-26T09:59:24.008Z,99601.72
2022-07-26T10:01:52.230Z,99608.97
2022-07-26T10:04:19.362Z,99595.47
2022-07-26T10:06:46.281Z,99602.97
2022-07-26T10:09:13.480Z,99600.97
2022-07-26T10:11:44.699Z,99594.56
2022-07-26T10:14:41.519Z,99595.38
2022-07-26T10:17:31.765Z,99593.63
2022-07-26T10:20:10.720Z,99599.09
2022-07-26T10:22:47.295Z,99602.00
2022-07-26T10:25:19.775Z,99601.16
2022-07-26T10:27:54.536Z,99591.19
2022-07-26T10:30:33.818Z,99598.97
2022-07-26T10:33:02.898Z,99596.25
2022-07-26T10:35:41.260Z,99595.03
2022-07-26T10:38:10.199Z,99583.31
2022-07-26T10:40:38.430Z,99599.78
2022-07-26T10:43:39.597Z,99595.22
2022-07-26T10:46:13.471Z,99609.44
2022-07-26T10:49:00.057Z,99604.91
2022-07-26T10:51:28.424Z,99599.38
2022-07-26T10:54:03.003Z,99596.66
2022-07-26T10:56:33.519Z,99601.72
2022-07-26T10:59:01.070Z,99609.25
2022-07-26T11:01:35.289Z,99588.16
2022-07-26T11:04:02.036Z,99591.81
2022-07-26T11:06:30.237Z,99602.19
2022-07-26T11:08:56.656Z,99600.63
2022-07-26T11:11:33.384Z,99598.97
2022-07-26T11:14:13.253Z,99599.53
2022-07-26T11:16:48.524Z,99597.19
2022-07-26T11:19:19.954Z,99598.09
2022-07-26T11:21:53.384Z,99613.31
2022-07-26T11:24:21.913Z,99609.78
2022-07-26T11:26:48.669Z,99607.97
2022-07-26T11:29:17.615Z,99598.22
2022-07-26T11:31:51.389Z,99599.81
2022-07-26T11:34:28.484Z,99610.53
2022-07-26T11:36:57.111Z,99607.06
2022-07-26T11:39:25.469Z,99595.84
2022-07-26T11:42:00.529Z,99599.88
2022-07-26T11:44:27.859Z,99595.09
2022-07-26T11:46:54.482Z,99594.28
2022-07-26T11:49:27.702Z,99601.34
2022-07-26T11:52:09.081Z,99608.19
2022-07-26T11:54:50.633Z,99586.06
2022-07-26T11:57:17.985Z,99588.38
2022-07-26T11:59:46.179Z,99599.03
2022-07-26T12:02:13.955Z,99594.28
2022-07-26T12:04:43.243Z,99593.06
2022-07-26T12:07:18.401Z,99595.72
2022-07-26T12:09:54.308Z,99601.50
2022-07-26T12:12:27.417Z,99592.03
2022-07-26T12:15:01.677Z,99592.97
2022-07-26T12:17:35.102Z,99615.78
2022-07-26T12:20:11.729Z,99593.56
2022-07-26T12:22:38.713Z,99583.00
2022-07-26T12:25:05.746Z,99586.88
2022-07-26T12:27:33.861Z,99585.88
2022-07-26T12:30:03.343Z,99583.22
2022-07-26T12:32:33.700Z,99587.31
2022-07-26T12:35:02.358Z,99582.41
2022-07-26T12:37:39.564Z,99579.25
2022-07-26T12:40:12.366Z,99580.75
2022-07-26T12:43:05.114Z,99574.00
2022-07-26T12:45:33.648Z,99572.19
2022-07-26T12:48:02.300Z,99574.44
2022-07-26T12:50:31.351Z,99589.53
2022-07-26T12:53:08.660Z,99576.50
2022-07-26T12:55:35.948Z,99572.72
2022-07-26T12:58:02.507Z,99571.16
2022-07-26T13:00:29.925Z,99576.75
2022-07-26T13:02:57.337Z,99572.47
2022-07-26T13:05:23.943Z,99571.66
2022-07-26T13:07:51.654Z,99583.78
2022-07-26T13:10:35.387Z,99592.28
2022-07-26T13:13:02.796Z,99597.75
2022-07-26T13:15:35.229Z,99597.84
2022-07-26T13:18:05.462Z,99597.97
2022-07-26T13:20:32.653Z,99591.47
2022-07-26T13:22:59.160Z,99597.63
2022-07-26T13:25:30.013Z,99602.28
2022-07-26T13:27:59.923Z,99619.00
2022-07-26T13:30:26.558Z,99599.72
2022-07-26T13:32:53.021Z,99606.88
2022-07-26T13:35:19.581Z,99606.59
2022-07-26T13:37:46.068Z,99613.00
2022-07-26T13:40:12.663Z,99614.00
2022-07-26T13:42:39.415Z,99617.31
2022-07-26T13:45:06.841Z,99612.09
2022-07-26T13:47:33.264Z,99618.31
2022-07-26T13:49:59.746Z,99615.72
2022-07-26T13:52:26.223Z,99622.81
2022-07-26T13:54:53.198Z,99618.47
2022-07-26T13:57:19.639Z,99616.63
2022-07-26T13:59:46.092Z,99618.50
2022-07-26T14:02:12.811Z,99616.47
2022-07-26T14:04:39.353Z,99619.81
2022-07-26T14:07:05.774Z,99611.31
2022-07-26T14:09:32.744Z,99612.84
2022-07-26T14:11:59.290Z,99616.19
2022-07-26T14:14:25.794Z,99620.06
2022-07-26T14:16:52.461Z,99613.19
2022-07-26T14:19:19.023Z,99611.78
2022-07-26T14:21:47.457Z,99612.28
2022-07-26T14:24:26.499Z,99607.63
2022-07-26T14:26:56.878Z,99604.53
2022-07-26T14:29:25.334Z,99619.41
2022-07-26T14:31:51.983Z,99623.31
2022-07-26T14:34:18.550Z,99623.22
2022-07-26T14:36:45.153Z,99620.72
2022-07-26T14:39:11.790Z,99615.06
2022-07-26T14:41:38.301Z,99614.41
2022-07-26T14:44:04.871Z,99621.22
2022-07-26T14:46:31.547Z,99620.78
2022-07-26T14:48:58.223Z,99620.56
2022-07-26T14:51:24.953Z,99626.00
2022-07-26T14:53:51.929Z,99632.34
2022-07-26T14:56:18.394Z,99626.16
2022-07-26T14:58:44.830Z,99629.34
2022-07-26T15:01:11.298Z,99632.34
2022-07-26T15:03:37.882Z,99635.66
2022-07-26T15:06:04.522Z,99633.47
2022-07-26T15:08:30.952Z,99633.19
2022-07-26T15:10:57.559Z,99627.09
2022-07-26T15:13:24.187Z,99629.63
2022-07-26T15:15:50.731Z,99635.41
2022-07-26T15:18:17.295Z,99629.63
2022-07-26T15:20:43.908Z,99637.00
2022-07-26T15:23:11.962Z,99636.19
2022-07-26T15:25:38.530Z,99624.56
2022-07-26T15:28:05.614Z,99629.50
2022-07-26T15:30:33.278Z,99637.28
2022-07-26T15:33:01.860Z,99638.72
2022-07-26T15:35:32.713Z,99637.91
2022-07-26T15:37:59.608Z,99631.78
2022-07-26T15:40:26.248Z,99648.34
2022-07-26T15:42:52.926Z,99648.84
2022-07-26T15:45:20.231Z,99655.94
2022-07-26T15:48:04.403Z,99654.34
2022-07-26T15:50:34.970Z,99652.25
2022-07-26T15:53:01.642Z,99649.50
2022-07-26T15:55:28.313Z,99653.09
2022-07-26T15:57:55.016Z,99646.16
2022-07-26T16:00:22.051Z,99657.22
2022-07-26T16:02:48.600Z,99659.91
2022-07-26T16:05:15.181Z,99664.16
2022-07-26T16:07:43.422Z,99668.75
2022-07-26T16:14:12.215Z,99668.09
2022-07-26T16:16:53.690Z,99665.34
2022-07-26T16:20:09.737Z,99671.97
2022-07-26T16:22:57.230Z,99673.44
2022-07-26T16:25:39.358Z,99670.66
2022-07-26T16:28:13.817Z,99673.69
2022-07-26T16:30:55.285Z,99677.78
2022-07-26T16:33:45.799Z,99678.34
2022-07-26T16:36:20.820Z,99685.66
2022-07-26T16:40:54.783Z,99683.72
2022-07-26T16:42:08.424Z,99681.53
2022-07-26T16:44:48.613Z,99689.41
2022-07-26T16:48:00.124Z,99694.72
2022-07-26T16:50:39.583Z,99694.19
2022-07-26T16:53:12.889Z,99691.66
2022-07-26T16:55:39.887Z,99698.59
2022-07-26T16:58:06.576Z,99696.38
2022-07-26T17:00:35.920Z,99686.84
2022-07-26T17:03:02.772Z,99689.94
2022-07-26T17:05:31.603Z,99690.38
2022-07-26T17:08:02.527Z,99692.06
2022-07-26T17:10:29.408Z,99688.91
2022-07-26T17:13:01.419Z,99694.56
2022-07-26T17:15:28.304Z,99698.91
2022-07-26T17:17:54.991Z,99699.94
2022-07-26T17:20:22.244Z,99705.94
2022-07-26T17:22:51.490Z,99707.63
2022-07-26T17:25:18.138Z,99698.16
2022-07-26T17:27:45.373Z,99710.19
2022-07-26T17:30:12.574Z,99700.66
2022-07-26T17:32:39.462Z,99706.53
2022-07-26T17:35:11.484Z,99705.47
2022-07-26T17:37:59.558Z,99713.47
2022-07-26T17:40:49.513Z,99708.16
2022-07-26T17:43:18.685Z,99708.81
2022-07-26T17:45:46.014Z,99717.91
2022-07-26T17:48:13.091Z,99721.66
2022-07-26T17:50:50.148Z,99721.69
2022-07-26T17:53:21.782Z,99718.53
2022-07-26T18:01:50.436Z,99716.03
2022-07-26T18:05:12.405Z,99719.25
2022-07-26T18:13:05.900Z,99722.75
2022-07-26T18:16:30.036Z,99722.56
2022-07-26T18:19:19.487Z,99729.38
2022-07-26T18:22:14.962Z,99717.72
2022-07-26T18:27:56.564Z,99716.94
2022-07-26T18:30:24.895Z,99725.09
2022-07-26T18:32:51.771Z,99730.22
2022-07-26T18:35:28.483Z,99731.97
2022-07-26T18:38:07.743Z,99736.97
2022-07-26T18:40:52.765Z,99731.97
2022-07-26T18:46:33.675Z,99729.53
2022-07-26T18:49:07.034Z,99748.94
2022-07-26T18:51:52.277Z,99740.22
2022-07-26T18:54:40.717Z,99742.47
2022-07-26T18:57:18.458Z,99744.91
2022-07-26T18:59:45.330Z,99740.09
2022-07-26T19:02:18.730Z,99751.59
2022-07-26T19:04:55.419Z,99764.91
2022-07-26T19:07:32.381Z,99756.75
2022-07-26T19:09:59.818Z,99755.38
2022-07-26T19:12:27.892Z,99753.53
2022-07-26T19:18:57.539Z,99758.44
2022-07-26T19:22:22.848Z,99763.09
2022-07-26T19:24:54.944Z,99770.91
2022-07-26T19:27:21.816Z,99773.69
2022-07-26T19:29:49.252Z,99772.69
2022-07-26T19:32:17.641Z,99774.34
2022-07-26T19:34:44.306Z,99772.88
2022-07-26T19:37:11.281Z,99783.19
2022-07-26T19:39:45.501Z,99779.25
2022-07-26T19:42:12.877Z,99781.00
2022-07-26T19:44:39.845Z,99781.66
2022-07-26T19:47:06.855Z,99779.41
2022-07-26T19:49:33.437Z,99783.44
2022-07-26T19:52:07.149Z,99782.00
2022-07-26T19:54:37.502Z,99780.31
2022-07-26T19:57:04.353Z,99797.16
2022-07-26T19:59:31.072Z,99789.47
2022-07-26T20:01:58.517Z,99793.50
2022-07-26T20:04:25.505Z,99797.03
2022-07-26T20:07:10.574Z,99801.91
2022-07-26T20:09:47.486Z,99797.50
2022-07-26T20:15:18.937Z,99805.34
2022-07-26T20:17:45.708Z,99813.78
2022-07-26T20:20:20.106Z,99810.63
2022-07-26T20:22:55.275Z,99811.91
2022-07-26T20:34:31.654Z,99813.69
2022-07-26T20:38:40.142Z,99811.38
2022-07-26T20:41:23.863Z,99811.00
2022-07-26T20:45:21.896Z,99814.75
2022-07-26T20:47:35.085Z,99815.59
2022-07-26T20:50:24.140Z,99813.50
2022-07-26T20:53:14.327Z,99813.28
2022-07-26T20:56:13.174Z,99810.56
2022-07-26T20:59:23.535Z,99806.81
2022-07-26T21:02:30.696Z,99811.84
2022-07-26T21:04:59.128Z,99821.75
2022-07-26T21:07:57.322Z,99824.84
2022-07-26T21:10:57.784Z,99816.03
2022-07-26T21:13:59.335Z,99821.88
2022-07-26T21:16:43.716Z,99829.03
2022-07-26T21:20:00.606Z,99825.47
2022-07-26T21:22:36.883Z,99822.28
2022-07-26T21:25:28.933Z,99832.16
2022-07-26T21:27:55.755Z,99829.63
2022-07-26T21:30:24.700Z,99832.34
2022-07-26T21:33:00.529Z,99840.31
2022-07-26T21:35:32.070Z,99835.00
2022-07-26T21:38:35.615Z,99829.97
2022-07-26T21:41:13.782Z,99832.97
2022-07-26T21:44:03.671Z,99838.41
2022-07-26T21:46:33.366Z,99846.81
2022-07-26T21:49:23.618Z,99845.34
2022-07-26T21:51:52.686Z,99844.09
2022-07-26T21:54:34.057Z,99839.06
2022-07-26T21:57:07.518Z,99842.78
2022-07-26T21:59:57.636Z,99852.44
2022-07-26T22:05:54.613Z,99845.34
2022-07-26T22:08:35.187Z,99844.47
2022-07-26T22:11:02.653Z,99854.94
2022-07-26T22:13:42.362Z,99845.72
2022-07-26T22:16:11.319Z,99848.03
2022-07-26T22:18:38.135Z,99848.66
2022-07-26T22:21:04.926Z,99844.88
2022-07-26T22:23:36.807Z,99852.88
2022-07-26T22:26:34.434Z,99857.06
2022-07-26T22:29:27.556Z,99853.47
2022-07-26T22:32:08.357Z,99860.25
2022-07-26T22:35:19.204Z,99857.97
2022-07-26T22:41:20.657Z,99858.38
2022-07-26T22:44:19.081Z,99862.38
2022-07-26T22:47:57.551Z,99856.06
2022-07-26T22:50:26.190Z,99861.13
2022-07-26T22:55:56.734Z,99861.53
2022-07-26T22:59:01.816Z,99856.06
2022-07-26T23:01:28.968Z,99855.84
2022-07-26T23:04:14.400Z,99851.66
2022-07-26T23:07:02.964Z,99856.91
2022-07-26T23:09:54.527Z,99845.34
2022-07-26T23:12:25.717Z,99853.72
2022-07-26T23:15:22.261Z,99855.44
2022-07-26T23:18:59.634Z,99857.97
2022-07-26T23:25:37.682Z,99860.00
2022-07-26T23:28:42.878Z,99868.03
2022-07-26T23:31:58.785Z,99869.72
2022-07-26T23:38:23.793Z,99875.81
2022-07-26T23:41:11.840Z,99873.72
2022-07-26T23:43:49.031Z,99875.41
2022-07-26T23:46:21.168Z,99873.53
2022-07-26T23:49:23.012Z,99877.94
2022-07-26T23:52:02.127Z,99868.28
2022-07-26T23:54:29.346Z,99873.34
2022-07-26T23:56:56.861Z,99871.50
2022-07-26T23:59:25.650Z,99888.03
